createdAt,value
2017-01-11T00:00:23.507Z,1015.3
2017-01-11T00:01:26.480Z,1015.3
2017-01-11T00:02:29.454Z,1015.3
2017-01-11T00:04:35.838Z,1015.3
2017-01-11T00:05:38.812Z,1015.4
2017-01-11T00:06:42.284Z,1015.4
2017-01-11T00:07:45.255Z,1015.4
2017-01-11T00:08:48.225Z,1015.5
2017-01-11T00:09:51.195Z,1015.5
2017-01-11T00:10:54.667Z,1015.4
2017-01-11T00:11:57.635Z,1015.4
2017-01-11T00:13:00.609Z,1015.3
2017-01-11T00:14:04.081Z,1015.3
2017-01-11T00:15:07.049Z,1015.4
2017-01-11T00:16:10.019Z,1015.3
2017-01-11T00:17:12.992Z,1015.3
2017-01-11T00:18:16.468Z,1015.2
2017-01-11T00:19:19.440Z,1015.3
2017-01-11T00:20:22.409Z,1015.2
2017-01-11T00:21:25.381Z,1015.3
2017-01-11T00:22:28.853Z,1015.3
2017-01-11T00:23:31.817Z,1015.3
2017-01-11T00:24:34.791Z,1015.3
2017-01-11T00:25:37.759Z,1015.3
2017-01-11T00:26:41.232Z,1015.2
2017-01-11T00:27:44.201Z,1015.3
2017-01-11T00:28:47.176Z,1015.1
2017-01-11T00:29:50.648Z,1015.1
2017-01-11T00:30:53.619Z,1015.2
2017-01-11T00:31:56.588Z,1015.2
2017-01-11T00:32:59.560Z,1015.2
2017-01-11T00:34:03.039Z,1015.2
2017-01-11T00:35:06.008Z,1015.2
2017-01-11T00:36:08.980Z,1015.2
2017-01-11T00:37:11.950Z,1015.3
2017-01-11T00:38:15.426Z,1015.3
2017-01-11T00:40:21.303Z,1015.2
2017-01-11T00:41:24.776Z,1015.2
2017-01-11T00:42:27.745Z,1015.2
2017-01-11T00:43:30.710Z,1015.2
2017-01-11T00:44:33.711Z,1015.2
2017-01-11T00:45:37.178Z,1015.2
2017-01-11T00:46:40.152Z,1015.2
2017-01-11T00:47:43.120Z,1015.1
2017-01-11T00:48:46.591Z,1015.1
2017-01-11T00:49:49.561Z,1015.2
2017-01-11T00:50:52.539Z,1015.1
2017-01-11T00:52:58.918Z,1015.2
2017-01-11T00:54:01.893Z,1015.1
2017-01-11T00:55:04.864Z,1015.1
2017-01-11T00:56:08.341Z,1015.1
2017-01-11T00:57:11.309Z,1015.1
2017-01-11T00:58:14.278Z,1015.1
2017-01-11T00:59:17.251Z,1015.1
2017-01-11T01:00:20.719Z,1015.1
2017-01-11T01:01:23.689Z,1015.1
2017-01-11T01:02:26.674Z,1015.2
2017-01-11T01:03:29.649Z,1015.2
2017-01-11T01:04:33.122Z,1015.1
2017-01-11T01:05:36.096Z,1015.1
2017-01-11T01:06:39.061Z,1015.1
2017-01-11T01:07:42.534Z,1015.1
2017-01-11T01:08:45.500Z,1015.1
2017-01-11T01:09:48.467Z,1015.1
2017-01-11T01:10:51.436Z,1015.1
2017-01-11T01:12:57.824Z,1015.1
2017-01-11T01:14:00.794Z,1015.1
2017-01-11T01:15:04.266Z,1015.1
2017-01-11T01:16:07.235Z,1015
2017-01-11T01:17:10.207Z,1015
2017-01-11T01:18:13.179Z,1015
2017-01-11T01:19:16.652Z,1015
2017-01-11T01:20:19.626Z,1015.1
2017-01-11T01:21:22.598Z,1015
2017-01-11T01:22:25.575Z,1015.1
2017-01-11T01:23:29.048Z,1015
2017-01-11T01:24:32.020Z,1015
2017-01-11T01:25:34.993Z,1015
2017-01-11T01:26:37.967Z,1015
2017-01-11T01:27:41.439Z,1015
2017-01-11T01:28:44.407Z,1015
2017-01-11T01:29:47.380Z,1015.1
2017-01-11T01:30:50.857Z,1015.1
2017-01-11T01:31:53.834Z,1015.1
2017-01-11T01:32:56.801Z,1015.1
2017-01-11T01:33:59.791Z,1015.1
2017-01-11T01:35:03.268Z,1015.1
2017-01-11T01:36:06.236Z,1015.1
2017-01-11T01:37:09.210Z,1015.1
2017-01-11T01:38:12.187Z,1015.1
2017-01-11T01:39:15.658Z,1015.1
2017-01-11T01:40:18.626Z,1015.2
2017-01-11T01:41:21.596Z,1015.1
2017-01-11T01:42:24.570Z,1015.2
2017-01-11T01:44:30.953Z,1015.2
2017-01-11T01:45:33.923Z,1015.2
2017-01-11T01:46:37.397Z,1015.2
2017-01-11T01:47:40.363Z,1015.2
2017-01-11T01:48:43.337Z,1015.2
2017-01-11T01:49:46.810Z,1015.2
2017-01-11T01:50:49.779Z,1015.3
2017-01-11T01:51:52.752Z,1015.2
2017-01-11T01:52:55.724Z,1015.3
2017-01-11T01:53:59.196Z,1015.3
2017-01-11T01:55:02.165Z,1015.3
2017-01-11T01:56:05.134Z,1015.3
2017-01-11T01:57:08.099Z,1015.3
2017-01-11T01:58:11.570Z,1015.2
2017-01-11T01:59:14.540Z,1015.2
2017-01-11T02:00:17.511Z,1015.2
2017-01-11T02:01:20.980Z,1015.1
2017-01-11T02:02:23.949Z,1015.1
2017-01-11T02:03:26.922Z,1015.2
2017-01-11T02:04:29.894Z,1015.1
2017-01-11T02:05:33.370Z,1015.1
2017-01-11T02:06:36.339Z,1015.1
2017-01-11T02:07:39.311Z,1015.1
2017-01-11T02:08:42.780Z,1015
2017-01-11T02:09:45.755Z,1015
2017-01-11T02:10:48.724Z,1015
2017-01-11T02:11:51.717Z,1015
2017-01-11T02:13:58.097Z,1015
2017-01-11T02:15:01.065Z,1015
2017-01-11T02:16:04.541Z,1015
2017-01-11T02:17:07.518Z,1014.9
2017-01-11T02:18:10.487Z,1014.9
2017-01-11T02:19:13.472Z,1014.9
2017-01-11T02:20:16.949Z,1014.9
2017-01-11T02:21:19.912Z,1014.9
2017-01-11T02:22:22.878Z,1014.9
2017-01-11T02:23:25.866Z,1014.9
2017-01-11T02:24:29.339Z,1015
2017-01-11T02:25:32.311Z,1014.9
2017-01-11T02:26:35.284Z,1014.9
2017-01-11T02:27:38.756Z,1014.9
2017-01-11T02:28:41.728Z,1014.9
2017-01-11T02:29:44.697Z,1014.9
2017-01-11T02:30:47.671Z,1014.9
2017-01-11T02:31:51.152Z,1014.9
2017-01-11T02:32:54.123Z,1015
2017-01-11T02:33:57.095Z,1015
2017-01-11T02:35:00.068Z,1015
2017-01-11T02:36:03.540Z,1015
2017-01-11T02:37:06.508Z,1015
2017-01-11T02:38:09.478Z,1015
2017-01-11T02:40:15.865Z,1015.1
2017-01-11T02:41:18.835Z,1015.1
2017-01-11T02:42:21.808Z,1015.1
2017-01-11T02:43:25.284Z,1015.1
2017-01-11T02:44:28.253Z,1015.1
2017-01-11T02:45:31.224Z,1015
2017-01-11T02:46:34.693Z,1015
2017-01-11T02:47:37.662Z,1014.9
2017-01-11T02:48:40.634Z,1015
2017-01-11T02:49:43.602Z,1015
2017-01-11T02:50:47.076Z,1015
2017-01-11T02:51:50.044Z,1015
2017-01-11T02:52:53.013Z,1015
2017-01-11T02:54:59.402Z,1014.9
2017-01-11T02:56:02.371Z,1015
2017-01-11T02:57:05.594Z,1014.9
2017-01-11T02:58:08.566Z,1015
2017-01-11T02:59:12.039Z,1014.9
2017-01-11T03:00:15.008Z,1014.9
2017-01-11T03:01:17.977Z,1014.8
2017-01-11T03:02:20.947Z,1014.7
2017-01-11T03:03:24.425Z,1014.7
2017-01-11T03:04:27.390Z,1014.6
2017-01-11T03:05:30.359Z,1014.6
2017-01-11T03:06:33.836Z,1014.7
2017-01-11T03:07:36.806Z,1014.6
2017-01-11T03:08:39.774Z,1014.7
2017-01-11T03:09:42.751Z,1014.6
2017-01-11T03:10:46.222Z,1014.7
2017-01-11T03:11:49.191Z,1014.7
2017-01-11T03:12:52.164Z,1014.6
2017-01-11T03:13:55.136Z,1014.6
2017-01-11T03:16:01.525Z,1014.6
2017-01-11T03:17:04.495Z,1014.6
2017-01-11T03:18:07.967Z,1014.6
2017-01-11T03:19:10.959Z,1014.6
2017-01-11T03:20:13.930Z,1014.5
2017-01-11T03:21:17.401Z,1014.5
2017-01-11T03:23:23.283Z,1014.4
2017-01-11T03:24:26.256Z,1014.4
2017-01-11T03:25:29.736Z,1014.4
2017-01-11T03:26:32.705Z,1014.3
2017-01-11T03:27:35.675Z,1014.3
2017-01-11T03:28:39.150Z,1014.4
2017-01-11T03:29:42.123Z,1014.3
2017-01-11T03:30:45.096Z,1014.3
2017-01-11T03:31:48.072Z,1014.4
2017-01-11T03:32:51.548Z,1014.4
2017-01-11T03:33:54.518Z,1014.5
2017-01-11T03:34:57.488Z,1014.5
2017-01-11T03:36:00.959Z,1014.5
2017-01-11T03:37:03.929Z,1014.5
2017-01-11T03:38:06.901Z,1014.5
2017-01-11T03:39:09.873Z,1014.6
2017-01-11T03:40:13.347Z,1014.6
2017-01-11T03:42:19.223Z,1014.6
2017-01-11T03:43:22.695Z,1014.7
2017-01-11T03:44:25.665Z,1014.7
2017-01-11T03:45:28.633Z,1014.7
2017-01-11T03:46:31.598Z,1014.7
2017-01-11T03:48:37.988Z,1014.5
2017-01-11T03:49:40.957Z,1014.6
2017-01-11T03:50:44.426Z,1014.5
2017-01-11T03:51:47.393Z,1014.5
2017-01-11T03:52:50.370Z,1014.5
2017-01-11T03:53:53.844Z,1014.5
2017-01-11T03:54:56.815Z,1014.5
2017-01-11T03:55:59.784Z,1014.6
2017-01-11T03:57:02.758Z,1014.5
2017-01-11T03:58:06.230Z,1014.5
2017-01-11T03:59:09.201Z,1014.4
2017-01-11T04:00:12.172Z,1014.4
2017-01-11T04:01:15.140Z,1014.3
2017-01-11T04:02:18.613Z,1014.3
2017-01-11T04:03:21.586Z,1014.3
2017-01-11T04:04:24.556Z,1014.3
2017-01-11T04:05:28.029Z,1014.4
2017-01-11T04:06:30.995Z,1014.4
2017-01-11T04:07:33.960Z,1014.4
2017-01-11T04:08:36.930Z,1014.5
2017-01-11T04:09:40.402Z,1014.4
2017-01-11T04:10:43.371Z,1014.4
2017-01-11T04:11:46.367Z,1014.4
2017-01-11T04:12:49.345Z,1014.3
2017-01-11T04:13:52.816Z,1014.3
2017-01-11T04:14:55.790Z,1014.3
2017-01-11T04:15:58.763Z,1014.2
2017-01-11T04:17:02.238Z,1014.3
2017-01-11T04:18:05.207Z,1014.2
2017-01-11T04:19:08.185Z,1014.2
2017-01-11T04:20:11.148Z,1014.3
2017-01-11T04:21:14.621Z,1014.3
2017-01-11T04:22:17.590Z,1014.3
2017-01-11T04:23:20.560Z,1014.2
2017-01-11T04:24:24.036Z,1014.2
2017-01-11T04:25:27.009Z,1014.2
2017-01-11T04:26:29.985Z,1014.1
2017-01-11T04:27:32.955Z,1014.1
2017-01-11T04:28:36.427Z,1014.1
2017-01-11T04:29:39.402Z,1014
2017-01-11T04:30:42.373Z,1014.1
2017-01-11T04:31:45.340Z,1014
2017-01-11T04:32:48.814Z,1014
2017-01-11T04:33:51.783Z,1013.9
2017-01-11T04:34:54.754Z,1013.9
2017-01-11T04:35:58.231Z,1013.8
2017-01-11T04:37:01.208Z,1013.9
2017-01-11T04:38:04.345Z,1013.9
2017-01-11T04:39:07.314Z,1013.9
2017-01-11T04:40:10.287Z,1013.9
2017-01-11T04:41:13.759Z,1013.9
2017-01-11T04:42:16.729Z,1014
2017-01-11T04:43:19.702Z,1014
2017-01-11T04:44:22.670Z,1014
2017-01-11T04:45:26.145Z,1013.9
2017-01-11T04:46:29.120Z,1013.9
2017-01-11T04:47:32.092Z,1013.8
2017-01-11T04:48:35.565Z,1013.8
2017-01-11T04:50:41.441Z,1013.7
2017-01-11T04:51:44.409Z,1013.7
2017-01-11T04:52:47.878Z,1013.7
2017-01-11T04:53:50.850Z,1013.6
2017-01-11T04:54:53.824Z,1013.6
2017-01-11T04:57:00.207Z,1013.5
2017-01-11T04:58:03.177Z,1013.5
2017-01-11T04:59:06.655Z,1013.5
2017-01-11T05:00:09.625Z,1013.4
2017-01-11T05:01:12.590Z,1013.5
2017-01-11T05:02:15.572Z,1013.5
2017-01-11T05:03:19.043Z,1013.4
2017-01-11T05:04:22.013Z,1013.5
2017-01-11T05:05:24.985Z,1013.4
2017-01-11T05:06:28.227Z,1013.4
2017-01-11T05:07:31.196Z,1013.4
2017-01-11T05:08:34.669Z,1013.5
2017-01-11T05:09:37.634Z,1013.5
2017-01-11T05:10:40.607Z,1013.5
2017-01-11T05:11:43.578Z,1013.4
2017-01-11T05:12:47.049Z,1013.5
2017-01-11T05:13:50.020Z,1013.4
2017-01-11T05:14:52.997Z,1013.4
2017-01-11T05:15:55.969Z,1013.4
2017-01-11T05:16:59.445Z,1013.4
2017-01-11T05:18:02.418Z,1013.4
2017-01-11T05:19:05.387Z,1013.4
2017-01-11T05:20:08.858Z,1013.3
2017-01-11T05:21:11.823Z,1013.3
2017-01-11T05:22:14.792Z,1013.4
2017-01-11T05:23:17.761Z,1013.4
2017-01-11T05:24:21.233Z,1013.4
2017-01-11T05:25:24.230Z,1013.4
2017-01-11T05:26:27.203Z,1013.4
2017-01-11T05:27:30.171Z,1013.4
2017-01-11T05:28:33.642Z,1013.5
2017-01-11T05:29:36.613Z,1013.5
2017-01-11T05:30:39.580Z,1013.5
2017-01-11T05:31:43.056Z,1013.5
2017-01-11T05:32:46.025Z,1013.6
2017-01-11T05:34:52.409Z,1013.6
2017-01-11T05:35:55.380Z,1013.6
2017-01-11T05:36:58.358Z,1013.7
2017-01-11T05:38:01.331Z,1013.7
2017-01-11T05:39:04.806Z,1013.7
2017-01-11T05:40:07.775Z,1013.8
2017-01-11T05:41:10.744Z,1013.8
2017-01-11T05:42:13.717Z,1013.8
2017-01-11T05:43:17.189Z,1013.8
2017-01-11T05:44:20.158Z,1013.8
2017-01-11T05:45:23.131Z,1013.7
2017-01-11T05:46:26.606Z,1013.7
2017-01-11T05:47:29.580Z,1013.7
2017-01-11T05:48:32.548Z,1013.7
2017-01-11T05:49:35.529Z,1013.7
2017-01-11T05:50:38.999Z,1013.6
2017-01-11T05:51:41.970Z,1013.6
2017-01-11T05:52:44.939Z,1013.5
2017-01-11T05:53:47.910Z,1013.5
2017-01-11T05:54:51.377Z,1013.5
2017-01-11T05:55:54.342Z,1013.5
2017-01-11T05:56:57.318Z,1013.4
2017-01-11T05:58:00.788Z,1013.3
2017-01-11T05:59:03.756Z,1013.3
2017-01-11T06:00:06.752Z,1013.2
2017-01-11T06:01:09.722Z,1013.2
2017-01-11T06:02:13.193Z,1013.1
2017-01-11T06:03:16.163Z,1013.1
2017-01-11T06:04:19.132Z,1013
2017-01-11T06:05:22.605Z,1012.9
2017-01-11T06:07:28.480Z,1012.9
2017-01-11T06:08:31.450Z,1012.9
2017-01-11T06:09:34.922Z,1012.9
2017-01-11T06:10:37.889Z,1013
2017-01-11T06:11:40.854Z,1012.9
2017-01-11T06:12:44.327Z,1012.9
2017-01-11T06:13:47.296Z,1012.8
2017-01-11T06:14:50.269Z,1012.8
2017-01-11T06:15:53.242Z,1012.8
2017-01-11T06:16:56.717Z,1012.8
2017-01-11T06:17:59.691Z,1012.8
2017-01-11T06:19:02.658Z,1012.8
2017-01-11T06:20:06.132Z,1012.9
2017-01-11T06:21:09.103Z,1012.9
2017-01-11T06:22:12.080Z,1013
2017-01-11T06:23:15.053Z,1013
2017-01-11T06:24:18.524Z,1013
2017-01-11T06:25:21.493Z,1013
2017-01-11T06:26:24.466Z,1012.9
2017-01-11T06:27:27.436Z,1012.9
2017-01-11T06:28:30.906Z,1013
2017-01-11T06:29:33.873Z,1013
2017-01-11T06:30:36.841Z,1013
2017-01-11T06:31:40.324Z,1012.9
2017-01-11T06:32:43.294Z,1012.9
2017-01-11T06:33:46.262Z,1012.8
2017-01-11T06:34:49.231Z,1012.8
2017-01-11T06:35:52.707Z,1012.7
2017-01-11T06:36:55.679Z,1012.7
2017-01-11T06:37:58.643Z,1012.5
2017-01-11T06:39:02.115Z,1012.4
2017-01-11T06:40:05.086Z,1012.4
2017-01-11T06:41:08.054Z,1012.4
2017-01-11T06:42:11.028Z,1012.4
2017-01-11T06:43:14.504Z,1012.4
2017-01-11T06:44:17.476Z,1012.5
2017-01-11T06:45:20.452Z,1012.5
2017-01-11T06:46:23.925Z,1012.5
2017-01-11T06:47:26.897Z,1012.5
2017-01-11T06:48:29.870Z,1012.5
2017-01-11T06:49:32.843Z,1012.4
2017-01-11T06:50:36.315Z,1012.3
2017-01-11T06:51:39.286Z,1012.3
2017-01-11T06:52:42.256Z,1012.2
2017-01-11T06:53:45.228Z,1012.2
2017-01-11T06:54:48.709Z,1012.2
2017-01-11T06:55:51.677Z,1012.2
2017-01-11T06:56:54.646Z,1012.3
2017-01-11T06:57:58.117Z,1012.3
2017-01-11T06:59:01.087Z,1012.3
2017-01-11T07:00:04.056Z,1012.4
2017-01-11T07:01:07.027Z,1012.4
2017-01-11T07:02:10.497Z,1012.5
2017-01-11T07:03:13.465Z,1012.5
2017-01-11T07:04:16.438Z,1012.6
2017-01-11T07:05:19.915Z,1012.6
2017-01-11T07:06:22.883Z,1012.5
2017-01-11T07:07:25.851Z,1012.6
2017-01-11T07:08:28.821Z,1012.6
2017-01-11T07:09:32.297Z,1012.6
2017-01-11T07:10:35.266Z,1012.6
2017-01-11T07:11:38.238Z,1012.6
2017-01-11T07:12:41.211Z,1012.6
2017-01-11T07:13:44.686Z,1012.7
2017-01-11T07:14:47.663Z,1012.6
2017-01-11T07:15:50.633Z,1012.7
2017-01-11T07:16:54.114Z,1012.6
2017-01-11T07:17:57.086Z,1012.6
2017-01-11T07:19:00.062Z,1012.7
2017-01-11T07:20:03.033Z,1012.6
2017-01-11T07:21:06.506Z,1012.6
2017-01-11T07:22:09.471Z,1012.7
2017-01-11T07:23:12.441Z,1012.7
2017-01-11T07:24:15.918Z,1012.6
2017-01-11T07:25:18.885Z,1012.6
2017-01-11T07:26:21.852Z,1012.6
2017-01-11T07:27:24.842Z,1012.5
2017-01-11T07:29:31.239Z,1012.4
2017-01-11T07:30:34.212Z,1012.4
2017-01-11T07:31:37.345Z,1012.4
2017-01-11T07:33:43.734Z,1012.5
2017-01-11T07:34:46.704Z,1012.5
2017-01-11T07:35:49.700Z,1012.5
2017-01-11T07:36:53.181Z,1012.5
2017-01-11T07:37:56.154Z,1012.5
2017-01-11T07:38:59.300Z,1012.5
2017-01-11T07:40:02.268Z,1012.5
2017-01-11T07:41:05.740Z,1012.5
2017-01-11T07:42:08.717Z,1012.5
2017-01-11T07:43:11.685Z,1012.5
2017-01-11T07:44:14.659Z,1012.4
2017-01-11T07:46:21.035Z,1012.5
2017-01-11T07:47:24.004Z,1012.5
2017-01-11T07:48:27.480Z,1012.6
2017-01-11T07:49:30.452Z,1012.5
2017-01-11T07:50:33.425Z,1012.5
2017-01-11T07:51:36.896Z,1012.5
2017-01-11T07:52:39.870Z,1012.4
2017-01-11T07:53:42.838Z,1012.4
2017-01-11T07:54:45.807Z,1012.4
2017-01-11T07:55:49.286Z,1012.5
2017-01-11T07:56:52.255Z,1012.5
2017-01-11T07:57:55.225Z,1012.5
2017-01-11T07:58:58.705Z,1012.5
2017-01-11T08:00:01.680Z,1012.5
2017-01-11T08:01:04.650Z,1012.5
2017-01-11T08:02:07.619Z,1012.5
2017-01-11T08:03:11.091Z,1012.6
2017-01-11T08:04:14.060Z,1012.5
2017-01-11T08:05:17.056Z,1012.4
2017-01-11T08:06:20.529Z,1012.4
2017-01-11T08:07:23.497Z,1012.3
2017-01-11T08:08:26.466Z,1012.3
2017-01-11T08:09:29.435Z,1012.2
2017-01-11T08:10:32.906Z,1012.2
2017-01-11T08:11:35.876Z,1012.2
2017-01-11T08:12:38.849Z,1012.2
2017-01-11T08:13:42.321Z,1012.2
2017-01-11T08:14:45.289Z,1012.3
2017-01-11T08:15:48.258Z,1012.3
2017-01-11T08:16:51.227Z,1012.3
2017-01-11T08:17:54.703Z,1012.3
2017-01-11T08:18:57.671Z,1012.2
2017-01-11T08:20:00.641Z,1012.3
2017-01-11T08:21:04.124Z,1012.3
2017-01-11T08:22:07.094Z,1012.2
2017-01-11T08:23:10.066Z,1012
2017-01-11T08:24:13.039Z,1012
2017-01-11T08:25:16.507Z,1012
2017-01-11T08:27:22.392Z,1012.1
2017-01-11T08:28:25.871Z,1012.2
2017-01-11T08:29:28.837Z,1012.1
2017-01-11T08:30:31.838Z,1012.1
2017-01-11T08:31:35.318Z,1012
2017-01-11T08:32:38.290Z,1012
2017-01-11T08:33:41.271Z,1012
2017-01-11T08:34:44.244Z,1012
2017-01-11T08:35:47.717Z,1011.9
2017-01-11T08:36:50.685Z,1011.9
2017-01-11T08:37:53.655Z,1011.9
2017-01-11T08:38:57.125Z,1012
2017-01-11T08:40:00.095Z,1012.1
2017-01-11T08:41:03.065Z,1012.2
2017-01-11T08:42:06.041Z,1012.1
2017-01-11T08:43:09.517Z,1012.1
2017-01-11T08:44:12.486Z,1012
2017-01-11T08:45:15.459Z,1012.1
2017-01-11T08:46:18.931Z,1012
2017-01-11T08:47:21.899Z,1012
2017-01-11T08:48:24.867Z,1012
2017-01-11T08:49:28.339Z,1011.9
2017-01-11T08:50:31.309Z,1011.9
2017-01-11T08:51:34.281Z,1011.9
2017-01-11T08:52:37.250Z,1011.8
2017-01-11T08:53:40.718Z,1011.8
2017-01-11T08:54:43.687Z,1011.8
2017-01-11T08:55:46.660Z,1011.7
2017-01-11T08:56:50.136Z,1011.7
2017-01-11T08:57:53.104Z,1011.7
2017-01-11T08:58:56.080Z,1011.6
2017-01-11T08:59:59.548Z,1011.6
2017-01-11T09:01:02.514Z,1011.5
2017-01-11T09:02:05.491Z,1011.5
2017-01-11T09:03:08.463Z,1011.4
2017-01-11T09:04:11.935Z,1011.4
2017-01-11T09:05:14.913Z,1011.4
2017-01-11T09:06:17.884Z,1011.5
2017-01-11T09:08:24.265Z,1011.4
2017-01-11T09:09:27.233Z,1011.3
2017-01-11T09:10:30.703Z,1011.3
2017-01-11T09:11:33.673Z,1011.2
2017-01-11T09:12:36.647Z,1011.1
2017-01-11T09:13:40.117Z,1011.1
2017-01-11T09:14:43.085Z,1011.1
2017-01-11T09:15:46.052Z,1011
2017-01-11T09:16:49.529Z,1011
2017-01-11T09:17:52.501Z,1011
2017-01-11T09:18:55.478Z,1011
2017-01-11T09:19:58.451Z,1010.9
2017-01-11T09:21:01.923Z,1011
2017-01-11T09:22:04.897Z,1010.8
2017-01-11T09:23:07.866Z,1010.8
2017-01-11T09:24:11.342Z,1010.8
2017-01-11T09:25:14.309Z,1010.8
2017-01-11T09:26:17.283Z,1010.8
2017-01-11T09:27:20.754Z,1010.7
2017-01-11T09:28:23.724Z,1010.7
2017-01-11T09:29:26.692Z,1010.6
2017-01-11T09:30:29.665Z,1010.6
2017-01-11T09:31:33.140Z,1010.6
2017-01-11T09:32:36.114Z,1010.5
2017-01-11T09:33:39.087Z,1010.5
2017-01-11T09:35:45.471Z,1010.4
2017-01-11T09:36:48.442Z,1010.4
2017-01-11T09:37:51.919Z,1010.3
2017-01-11T09:38:54.884Z,1010.3
2017-01-11T09:39:57.881Z,1010.3
2017-01-11T09:41:01.357Z,1010.3
2017-01-11T09:43:07.233Z,1010.2
2017-01-11T09:44:10.706Z,1010.1
2017-01-11T09:45:13.699Z,1010.1
2017-01-11T09:46:16.668Z,1009.9
2017-01-11T09:47:20.136Z,1010.1
2017-01-11T09:48:23.104Z,1009.9
2017-01-11T09:49:26.071Z,1010.1
2017-01-11T09:50:29.041Z,1009.9
2017-01-11T09:51:32.509Z,1009.9
2017-01-11T09:52:35.482Z,1009.9
2017-01-11T09:53:38.455Z,1009.8
2017-01-11T09:54:41.928Z,1009.9
2017-01-11T09:56:47.815Z,1009.7
2017-01-11T09:57:51.291Z,1009.7
2017-01-11T09:58:54.261Z,1009.7
2017-01-11T09:59:57.233Z,1009.7
2017-01-11T10:01:00.706Z,1009.7
2017-01-11T10:02:03.675Z,1009.6
2017-01-11T10:03:06.647Z,1009.5
2017-01-11T10:04:10.122Z,1009.5
2017-01-11T10:05:13.092Z,1009.5
2017-01-11T10:07:19.479Z,1009.5
2017-01-11T10:08:22.448Z,1009.5
2017-01-11T10:09:25.425Z,1009.4
2017-01-11T10:10:28.903Z,1009.4
2017-01-11T10:11:31.876Z,1009.3
2017-01-11T10:12:34.845Z,1009.2
2017-01-11T10:13:38.318Z,1009.1
2017-01-11T10:14:41.286Z,1009.1
2017-01-11T10:15:44.253Z,1009
2017-01-11T10:16:47.224Z,1008.9
2017-01-11T10:17:50.696Z,1008.9
2017-01-11T10:18:53.661Z,1008.9
2017-01-11T10:19:56.627Z,1008.9
2017-01-11T10:21:00.101Z,1008.9
2017-01-11T10:22:03.240Z,1008.9
2017-01-11T10:23:06.215Z,1009
2017-01-11T10:24:09.481Z,1009
2017-01-11T10:25:12.450Z,1009
2017-01-11T10:26:15.426Z,1009.1
2017-01-11T10:27:18.899Z,1009
2017-01-11T10:28:22.037Z,1009
2017-01-11T10:29:25.009Z,1009
2017-01-11T10:30:27.982Z,1008.9
2017-01-11T10:31:31.454Z,1008.8
2017-01-11T10:32:34.430Z,1008.8
2017-01-11T10:33:37.398Z,1008.8
2017-01-11T10:34:40.870Z,1008.7
2017-01-11T10:35:43.842Z,1008.6
2017-01-11T10:36:46.815Z,1008.6
2017-01-11T10:37:50.283Z,1008.7
2017-01-11T10:38:53.251Z,1008.6
2017-01-11T10:39:56.217Z,1008.5
2017-01-11T10:40:59.687Z,1008.5
2017-01-11T10:42:02.657Z,1008.6
2017-01-11T10:43:05.630Z,1008.7
2017-01-11T10:44:08.599Z,1008.7
2017-01-11T10:45:12.078Z,1008.7
2017-01-11T10:46:15.047Z,1008.6
2017-01-11T10:47:18.020Z,1008.6
2017-01-11T10:48:21.500Z,1008.7
2017-01-11T10:49:24.472Z,1008.6
2017-01-11T10:50:27.440Z,1008.6
2017-01-11T10:51:30.912Z,1008.6
2017-01-11T10:52:33.885Z,1008.6
2017-01-11T10:53:36.855Z,1008.6
2017-01-11T10:54:40.355Z,1008.4
2017-01-11T10:55:43.328Z,1008.3
2017-01-11T10:56:46.296Z,1008.3
2017-01-11T10:57:49.770Z,1008.2
2017-01-11T10:58:52.741Z,1008.2
2017-01-11T10:59:55.709Z,1008
2017-01-11T11:00:59.186Z,1008
2017-01-11T11:02:02.159Z,1008
2017-01-11T11:03:05.152Z,1008.1
2017-01-11T11:04:08.622Z,1008.1
2017-01-11T11:05:11.586Z,1008
2017-01-11T11:07:17.973Z,1007.9
2017-01-11T11:08:20.940Z,1007.9
2017-01-11T11:09:23.911Z,1007.8
2017-01-11T11:10:27.380Z,1007.7
2017-01-11T11:11:30.350Z,1007.6
2017-01-11T11:12:33.319Z,1007.3
2017-01-11T11:13:36.795Z,1007.4
2017-01-11T11:14:39.766Z,1007.4
2017-01-11T11:15:42.736Z,1007.1
2017-01-11T11:16:46.212Z,1007
2017-01-11T11:17:49.175Z,1007.1
2017-01-11T11:18:52.148Z,1007.1
2017-01-11T11:19:55.620Z,1006.8
2017-01-11T11:20:58.591Z,1006.9
2017-01-11T11:22:01.562Z,1006.8
2017-01-11T11:23:05.035Z,1006.8
2017-01-11T11:24:08.007Z,1006.7
2017-01-11T11:25:10.976Z,1006.7
2017-01-11T11:27:17.362Z,1006.6
2017-01-11T11:28:20.332Z,1006.7
2017-01-11T11:29:23.808Z,1006.5
2017-01-11T11:30:26.783Z,1006.4
2017-01-11T11:31:29.757Z,1006.4
2017-01-11T11:32:33.235Z,1006.5
2017-01-11T11:33:36.199Z,1006.4
2017-01-11T11:34:39.168Z,1006.5
2017-01-11T11:35:42.646Z,1006.4
2017-01-11T11:36:45.617Z,1006.4
2017-01-11T11:37:48.590Z,1006.5
2017-01-11T11:38:52.078Z,1006.4
2017-01-11T11:39:55.050Z,1006.3
2017-01-11T11:40:58.019Z,1006.3
2017-01-11T11:42:00.996Z,1006.3
2017-01-11T11:43:04.471Z,1006.4
2017-01-11T11:44:07.443Z,1006.5
2017-01-11T11:45:10.413Z,1006.5
2017-01-11T11:46:13.913Z,1006.4
2017-01-11T11:47:16.883Z,1006.5
2017-01-11T11:48:19.854Z,1006.4
2017-01-11T11:49:23.322Z,1006.3
2017-01-11T11:50:26.298Z,1006.3
2017-01-11T11:51:29.265Z,1006.2
2017-01-11T11:52:32.740Z,1006.3
2017-01-11T11:53:35.709Z,1006.1
2017-01-11T11:54:38.677Z,1006.1
2017-01-11T11:55:42.152Z,1006.1
2017-01-11T11:56:45.126Z,1006
2017-01-11T11:57:48.095Z,1005.9
2017-01-11T11:58:51.571Z,1005.8
2017-01-11T11:59:54.540Z,1005.8
2017-01-11T12:00:57.508Z,1005.7
2017-01-11T12:02:00.980Z,1005.6
2017-01-11T12:03:03.957Z,1005.7
2017-01-11T12:04:06.926Z,1005.7
2017-01-11T12:05:10.398Z,1005.6
2017-01-11T12:06:13.369Z,1005.8
2017-01-11T12:07:16.842Z,1005.7
2017-01-11T12:08:19.807Z,1005.7
2017-01-11T12:09:22.775Z,1005.6
2017-01-11T12:10:26.247Z,1005.6
2017-01-11T12:11:29.216Z,1005.5
2017-01-11T12:12:32.189Z,1005.5
2017-01-11T12:13:35.662Z,1005.4
2017-01-11T12:14:38.633Z,1005.4
2017-01-11T12:15:41.605Z,1005.3
2017-01-11T12:16:45.077Z,1005.2
2017-01-11T12:17:48.047Z,1005.1
2017-01-11T12:18:51.017Z,1005.2
2017-01-11T12:20:57.402Z,1005.2
2017-01-11T12:22:00.369Z,1005.1
2017-01-11T12:23:03.839Z,1005.1
2017-01-11T12:24:06.809Z,1004.9
2017-01-11T12:25:09.778Z,1004.8
2017-01-11T12:26:13.250Z,1004.7
2017-01-11T12:27:16.222Z,1004.6
2017-01-11T12:28:19.191Z,1004.7
2017-01-11T12:29:22.666Z,1004.8
2017-01-11T12:30:25.644Z,1004.7
2017-01-11T12:31:28.616Z,1004.8
2017-01-11T12:32:32.096Z,1004.8
2017-01-11T12:33:35.064Z,1004.7
2017-01-11T12:34:38.034Z,1004.7
2017-01-11T12:35:41.506Z,1004.8
2017-01-11T12:36:44.481Z,1004.7
2017-01-11T12:37:47.451Z,1004.5
2017-01-11T12:38:50.926Z,1004.6
2017-01-11T12:39:53.899Z,1004.6
2017-01-11T12:40:56.868Z,1004.5
2017-01-11T12:42:00.338Z,1004.4
2017-01-11T12:43:03.305Z,1004.4
2017-01-11T12:44:06.273Z,1004.5
2017-01-11T12:45:09.750Z,1004.5
2017-01-11T12:46:12.722Z,1004.5
2017-01-11T12:47:15.694Z,1004.4
2017-01-11T12:48:19.163Z,1004.4
2017-01-11T12:49:22.135Z,1004.5
2017-01-11T12:50:25.104Z,1004.4
2017-01-11T12:51:28.580Z,1004.5
2017-01-11T12:52:31.551Z,1004.4
2017-01-11T12:53:34.520Z,1004.4
2017-01-11T12:54:38.001Z,1004.4
2017-01-11T12:55:40.974Z,1004.3
2017-01-11T12:56:43.946Z,1004.3
2017-01-11T12:57:47.419Z,1004.3
2017-01-11T12:58:50.556Z,1004.2
2017-01-11T12:59:53.526Z,1004.2
2017-01-11T13:00:56.497Z,1004.2
2017-01-11T13:01:59.970Z,1004.1
2017-01-11T13:03:02.949Z,1004.1
2017-01-11T13:04:05.923Z,1004.2
2017-01-11T13:05:09.399Z,1004
2017-01-11T13:06:12.367Z,1004.1
2017-01-11T13:07:15.339Z,1004
2017-01-11T13:08:18.313Z,1004
2017-01-11T13:10:24.692Z,1004
2017-01-11T13:11:28.168Z,1004
2017-01-11T13:12:31.140Z,1004
2017-01-11T13:13:34.146Z,1003.8
2017-01-11T13:14:37.120Z,1004
2017-01-11T13:15:40.595Z,1003.8
2017-01-11T13:16:43.568Z,1003.8
2017-01-11T13:17:46.542Z,1003.7
2017-01-11T13:18:50.015Z,1003.7
2017-01-11T13:19:52.993Z,1003.6
2017-01-11T13:20:55.968Z,1003.6
2017-01-11T13:21:59.440Z,1003.4
2017-01-11T13:23:02.413Z,1003.5
2017-01-11T13:24:05.383Z,1003.5
2017-01-11T13:25:08.858Z,1003.4
2017-01-11T13:26:11.823Z,1003.4
2017-01-11T13:27:14.794Z,1003.4
2017-01-11T13:28:18.271Z,1003.2
2017-01-11T13:29:21.240Z,1003.2
2017-01-11T13:30:24.220Z,1003.1
2017-01-11T13:31:27.700Z,1003
2017-01-11T13:32:30.692Z,1003
2017-01-11T13:33:33.669Z,1003
2017-01-11T13:34:37.146Z,1003
2017-01-11T13:35:40.115Z,1002.9
2017-01-11T13:36:43.087Z,1002.9
2017-01-11T13:37:46.559Z,1002.8
2017-01-11T13:38:49.531Z,1002.7
2017-01-11T13:39:52.508Z,1002.7
2017-01-11T13:40:55.980Z,1002.6
2017-01-11T13:41:58.961Z,1002.5
2017-01-11T13:43:01.934Z,1002.5
2017-01-11T13:44:05.408Z,1002.4